createdAt,value
2023-05-05T00:02:53.818Z,77.61
2023-05-05T00:05:56.906Z,77.78
2023-05-05T00:08:59.654Z,78.66
2023-05-05T00:12:03.066Z,78.34
2023-05-05T00:15:06.519Z,79.00
2023-05-05T00:18:10.027Z,79.45
2023-05-05T00:21:13.389Z,79.27
2023-05-05T00:24:16.369Z,79.31
2023-05-05T00:27:19.104Z,79.46
2023-05-05T00:30:22.442Z,79.80
2023-05-05T00:33:25.942Z,80.21
2023-05-05T00:36:28.788Z,79.64
2023-05-05T00:39:31.670Z,79.38
2023-05-05T00:42:48.342Z,78.67
2023-05-05T00:46:03.831Z,79.26
2023-05-05T00:49:07.244Z,79.48
2023-05-05T00:52:10.982Z,79.51
2023-05-05T00:55:13.852Z,80.18
2023-05-05T00:58:17.188Z,80.05
2023-05-05T01:01:20.404Z,79.67
2023-05-05T01:04:23.293Z,79.76
2023-05-05T01:07:47.527Z,79.26
2023-05-05T01:11:01.572Z,79.53
2023-05-05T01:14:18.065Z,79.31
2023-05-05T01:17:24.697Z,79.41
2023-05-05T01:20:33.266Z,79.76
2023-05-05T01:24:08.031Z,79.29
2023-05-05T01:27:19.511Z,79.78
2023-05-05T01:30:25.054Z,79.67
2023-05-05T01:33:32.585Z,79.13
2023-05-05T01:36:39.907Z,79.13
2023-05-05T01:39:44.832Z,79.05
2023-05-05T01:42:49.208Z,78.60
2023-05-05T01:45:53.913Z,78.87
2023-05-05T01:48:59.104Z,79.47
2023-05-05T01:52:03.900Z,79.58
2023-05-05T01:55:08.675Z,79.71
2023-05-05T01:58:13.983Z,79.70
2023-05-05T02:01:18.969Z,79.58
2023-05-05T02:04:23.364Z,79.22
2023-05-05T02:07:27.602Z,79.48
2023-05-05T02:10:31.230Z,79.61
2023-05-05T02:13:35.356Z,80.01
2023-05-05T02:16:41.414Z,78.85
2023-05-05T02:19:46.429Z,78.92
2023-05-05T02:22:49.791Z,78.92
2023-05-05T02:25:56.614Z,79.49
2023-05-05T02:29:07.584Z,79.65
2023-05-05T02:32:17.218Z,79.21
2023-05-05T02:35:28.641Z,79.29
2023-05-05T02:38:32.879Z,78.78
2023-05-05T02:41:39.727Z,79.37
2023-05-05T02:44:51.690Z,79.90
2023-05-05T02:47:55.473Z,79.84
2023-05-05T02:50:59.747Z,79.55
2023-05-05T02:54:11.965Z,79.65
2023-05-05T02:57:18.629Z,80.14
2023-05-05T03:00:40.303Z,80.18
2023-05-05T03:03:54.745Z,79.87
2023-05-05T03:07:04.869Z,79.25
2023-05-05T03:10:15.441Z,79.12
2023-05-05T03:13:27.022Z,79.01
2023-05-05T03:16:32.321Z,79.12
2023-05-05T03:19:39.018Z,79.02
2023-05-05T03:22:41.826Z,79.20
2023-05-05T03:25:49.900Z,79.24
2023-05-05T03:29:14.226Z,79.48
2023-05-05T03:32:17.240Z,79.46
2023-05-05T03:35:20.448Z,78.97
2023-05-05T03:38:23.474Z,78.54
2023-05-05T03:41:27.783Z,78.10
2023-05-05T03:44:31.147Z,77.74
2023-05-05T03:47:34.352Z,77.97
2023-05-05T03:50:37.728Z,78.09
2023-05-05T03:53:40.787Z,78.07
2023-05-05T03:56:44.806Z,78.23
2023-05-05T03:59:48.402Z,78.15
2023-05-05T04:02:52.035Z,79.13
2023-05-05T04:05:56.013Z,79.45
2023-05-05T04:08:58.843Z,79.08
2023-05-05T04:12:03.227Z,79.12
2023-05-05T04:15:07.061Z,78.65
2023-05-05T04:18:10.725Z,78.55
2023-05-05T04:21:14.142Z,78.19
2023-05-05T04:24:19.278Z,77.82
2023-05-05T04:27:22.325Z,77.44
2023-05-05T04:30:25.459Z,76.64
2023-05-05T04:33:28.578Z,76.83
2023-05-05T04:36:31.721Z,76.40
2023-05-05T04:39:35.415Z,77.14
2023-05-05T04:42:40.022Z,76.92
2023-05-05T04:45:53.014Z,76.95
2023-05-05T04:48:59.256Z,77.20
2023-05-05T04:52:02.294Z,77.26
2023-05-05T04:55:05.787Z,77.15
2023-05-05T04:58:09.411Z,77.70
2023-05-05T05:01:12.193Z,78.22
2023-05-05T05:04:18.680Z,77.86
2023-05-05T05:07:21.743Z,78.64
2023-05-05T05:10:24.532Z,78.58
2023-05-05T05:13:27.387Z,77.85
2023-05-05T05:16:30.275Z,78.01
2023-05-05T05:19:33.323Z,78.21
2023-05-05T05:22:38.911Z,78.90
2023-05-05T05:25:46.245Z,78.57
2023-05-05T05:28:51.360Z,78.69
2023-05-05T05:31:54.422Z,78.80
2023-05-05T05:34:57.329Z,77.93
2023-05-05T05:38:00.129Z,77.21
2023-05-05T05:41:07.812Z,77.78
2023-05-05T05:44:12.661Z,77.20
2023-05-05T05:47:15.818Z,76.76
2023-05-05T05:50:19.191Z,76.07
2023-05-05T05:53:22.323Z,76.82
2023-05-05T05:56:25.945Z,76.83
2023-05-05T05:59:29.521Z,76.35
2023-05-05T06:02:32.802Z,75.87
2023-05-05T06:05:35.878Z,76.88
2023-05-05T06:08:38.985Z,76.02
2023-05-05T06:11:42.631Z,75.24
2023-05-05T06:14:45.411Z,74.99
2023-05-05T06:17:48.303Z,74.57
2023-05-05T06:20:52.489Z,73.98
2023-05-05T06:23:57.677Z,73.42
2023-05-05T06:27:00.673Z,74.00
2023-05-05T06:30:03.916Z,74.43
2023-05-05T06:33:06.811Z,72.61
2023-05-05T06:36:09.829Z,72.81
2023-05-05T06:39:14.022Z,71.92
2023-05-05T06:42:19.090Z,71.62
2023-05-05T06:45:22.368Z,70.14
2023-05-05T06:48:25.156Z,69.27
2023-05-05T06:51:27.939Z,67.93
2023-05-05T06:54:30.832Z,67.38
2023-05-05T06:57:33.823Z,69.31
2023-05-05T07:00:36.822Z,68.61
2023-05-05T07:03:39.761Z,66.68
2023-05-05T07:06:42.599Z,66.58
2023-05-05T07:09:45.611Z,65.57
2023-05-05T07:12:48.859Z,66.30
2023-05-05T07:15:51.600Z,65.22
2023-05-05T07:18:54.423Z,65.46
2023-05-05T07:21:57.281Z,65.54
2023-05-05T07:25:00.159Z,65.22
2023-05-05T07:28:03.919Z,64.32
2023-05-05T07:31:06.764Z,63.63
2023-05-05T07:34:09.625Z,61.16
2023-05-05T07:37:13.114Z,60.36
2023-05-05T07:40:17.218Z,59.66
2023-05-05T07:43:20.002Z,59.63
2023-05-05T07:46:22.874Z,57.96
2023-05-05T07:49:26.918Z,57.26
2023-05-05T07:52:44.350Z,55.10
2023-05-05T07:55:51.431Z,49.00
2023-05-05T07:58:54.605Z,51.37
2023-05-05T08:01:57.334Z,53.92
2023-05-05T08:05:00.885Z,56.35
2023-05-05T08:08:03.885Z,56.45
2023-05-05T08:11:06.950Z,56.20
2023-05-05T08:14:09.829Z,55.43
2023-05-05T08:17:12.654Z,53.98
2023-05-05T08:20:16.661Z,53.28
2023-05-05T08:23:19.459Z,53.24
2023-05-05T08:26:23.003Z,53.82
2023-05-05T08:29:25.810Z,52.04
2023-05-05T08:32:29.981Z,50.67
2023-05-05T08:35:32.838Z,49.53
2023-05-05T08:38:35.674Z,49.42
2023-05-05T08:41:38.518Z,49.66
2023-05-05T08:44:41.425Z,46.96
2023-05-05T08:47:44.405Z,47.98
2023-05-05T08:50:52.959Z,47.79
2023-05-05T08:53:56.046Z,48.38
2023-05-05T08:57:02.445Z,46.95
2023-05-05T09:00:06.303Z,47.91
2023-05-05T09:03:10.159Z,47.83
2023-05-05T09:06:13.582Z,48.11
2023-05-05T09:09:17.680Z,46.84
2023-05-05T09:12:21.995Z,46.24
2023-05-05T09:15:24.813Z,45.73
2023-05-05T09:18:27.577Z,45.59
2023-05-05T09:21:30.580Z,45.24
2023-05-05T09:24:33.712Z,44.92
2023-05-05T09:27:38.624Z,44.57
2023-05-05T09:30:43.458Z,43.63
2023-05-05T09:33:46.695Z,43.39
2023-05-05T09:36:49.550Z,44.71
2023-05-05T09:39:55.713Z,44.55
2023-05-05T09:43:02.639Z,42.11
2023-05-05T09:46:07.883Z,40.47
2023-05-05T09:49:18.883Z,39.44
2023-05-05T09:52:22.125Z,40.46
2023-05-05T09:55:25.635Z,40.25
2023-05-05T09:58:30.156Z,40.91
2023-05-05T10:01:33.006Z,39.74
2023-05-05T10:04:36.197Z,39.46
2023-05-05T10:07:41.183Z,39.51
2023-05-05T10:10:50.660Z,39.69
2023-05-05T10:13:53.942Z,38.10
2023-05-05T10:16:57.925Z,38.72
2023-05-05T10:20:02.188Z,38.34
2023-05-05T10:23:08.347Z,39.74
2023-05-05T10:26:14.453Z,42.02
2023-05-05T10:29:42.880Z,38.97
2023-05-05T10:33:03.475Z,39.28
2023-05-05T10:36:15.106Z,39.91
2023-05-05T10:39:20.161Z,38.85
2023-05-05T10:42:24.377Z,39.00
2023-05-05T10:45:27.780Z,39.32
2023-05-05T10:48:41.340Z,39.04
2023-05-05T10:51:58.156Z,38.00
2023-05-05T10:55:22.161Z,38.08
2023-05-05T10:58:47.134Z,36.98
2023-05-05T11:01:58.682Z,39.49
2023-05-05T11:05:18.426Z,40.10
2023-05-05T11:08:27.285Z,40.34
2023-05-05T11:12:03.246Z,39.37
2023-05-05T11:15:24.219Z,39.55
2023-05-05T11:18:37.638Z,39.83
2023-05-05T11:22:00.972Z,39.97
2023-05-05T11:25:42.226Z,40.78
2023-05-05T11:28:56.535Z,40.72
2023-05-05T11:32:13.241Z,40.42
2023-05-05T11:35:16.398Z,39.54
2023-05-05T11:38:26.132Z,38.76
2023-05-05T11:41:34.354Z,38.19
2023-05-05T11:44:37.693Z,37.86
2023-05-05T11:47:40.562Z,37.14
2023-05-05T11:50:43.731Z,36.31
2023-05-05T11:53:49.161Z,36.11
2023-05-05T11:56:56.795Z,35.75
2023-05-05T12:00:02.233Z,35.46
2023-05-05T12:03:08.176Z,35.79
2023-05-05T12:06:11.137Z,36.31
2023-05-05T12:09:21.313Z,37.90
2023-05-05T12:12:42.484Z,39.51
2023-05-05T12:15:45.559Z,38.71
2023-05-05T12:19:02.851Z,39.00
2023-05-05T12:22:05.779Z,39.23
2023-05-05T12:25:09.333Z,40.86
2023-05-05T12:28:12.115Z,41.16
2023-05-05T12:31:16.104Z,39.55
2023-05-05T12:34:19.360Z,41.04
2023-05-05T12:37:23.186Z,41.20
2023-05-05T12:40:47.098Z,39.22
2023-05-05T12:43:56.187Z,39.33
2023-05-05T12:46:59.341Z,39.33
2023-05-05T12:50:03.449Z,38.88
2023-05-05T12:53:07.554Z,39.31
2023-05-05T12:56:32.926Z,38.77
2023-05-05T12:59:36.401Z,37.91
2023-05-05T13:02:39.162Z,37.28
2023-05-05T13:05:42.257Z,36.25
2023-05-05T13:08:46.133Z,37.16
2023-05-05T13:11:49.215Z,37.80
2023-05-05T13:14:52.007Z,37.78
2023-05-05T13:18:01.606Z,37.06
2023-05-05T13:21:04.737Z,36.08
2023-05-05T13:27:13.366Z,36.27
2023-05-05T13:30:16.132Z,35.63
2023-05-05T13:33:18.845Z,36.57
2023-05-05T13:36:21.869Z,35.82
2023-05-05T13:39:24.661Z,36.04
2023-05-05T13:42:27.589Z,33.93
2023-05-05T13:45:30.415Z,35.17
2023-05-05T13:48:42.013Z,33.44
2023-05-05T13:51:47.140Z,33.38
2023-05-05T13:54:50.200Z,34.02
2023-05-05T13:57:52.962Z,34.79
2023-05-05T14:00:56.382Z,33.07
2023-05-05T14:03:59.785Z,32.10
2023-05-05T14:07:04.962Z,32.33
2023-05-05T14:10:08.408Z,32.37
2023-05-05T14:13:11.362Z,35.12
2023-05-05T14:16:14.185Z,35.51
2023-05-05T14:19:17.052Z,33.08
2023-05-05T14:22:19.838Z,30.40
2023-05-05T14:25:22.595Z,30.92
2023-05-05T14:28:25.543Z,31.17
2023-05-05T14:31:28.846Z,31.13
2023-05-05T14:34:32.149Z,32.56
2023-05-05T14:37:35.078Z,31.54
2023-05-05T14:40:37.853Z,30.50
2023-05-05T14:43:41.085Z,30.82
2023-05-05T14:46:46.001Z,30.88
2023-05-05T14:49:49.153Z,31.17
2023-05-05T14:52:51.923Z,31.79
2023-05-05T14:55:54.991Z,32.12
2023-05-05T14:58:58.748Z,31.20
2023-05-05T15:02:01.780Z,31.51
2023-05-05T15:05:05.321Z,30.67
2023-05-05T15:08:08.395Z,30.31
2023-05-05T15:11:11.103Z,29.38
2023-05-05T15:14:13.844Z,30.17
2023-05-05T15:17:17.532Z,31.08
2023-05-05T15:20:20.755Z,30.08
2023-05-05T15:23:23.576Z,30.03
2023-05-05T15:26:26.781Z,30.58
2023-05-05T15:29:29.542Z,31.51
2023-05-05T15:32:32.309Z,30.60
2023-05-05T15:35:36.315Z,31.14
2023-05-05T15:38:45.130Z,30.55
2023-05-05T15:41:48.333Z,32.49
2023-05-05T15:44:51.565Z,32.35
2023-05-05T15:47:54.573Z,31.39
2023-05-05T15:50:57.439Z,32.00
2023-05-05T15:54:00.420Z,32.47
2023-05-05T15:57:03.370Z,32.05
2023-05-05T16:00:08.494Z,30.81
2023-05-05T16:03:19.079Z,31.36
2023-05-05T16:06:24.967Z,32.02
2023-05-05T16:09:27.826Z,32.54
2023-05-05T16:12:30.691Z,33.20
2023-05-05T16:15:35.362Z,33.94
2023-05-05T16:18:38.249Z,35.81
2023-05-05T16:21:41.029Z,36.51
2023-05-05T16:24:44.443Z,37.48
2023-05-05T16:27:47.252Z,37.42
2023-05-05T16:30:49.987Z,38.33
2023-05-05T16:33:53.049Z,38.03
2023-05-05T16:36:56.187Z,38.66
2023-05-05T16:40:00.844Z,39.37
2023-05-05T16:43:05.828Z,41.02
2023-05-05T16:46:10.029Z,41.17
2023-05-05T16:49:12.738Z,41.41
2023-05-05T16:52:15.611Z,41.89
2023-05-05T16:55:18.563Z,41.91
2023-05-05T16:58:22.950Z,42.49
2023-05-05T17:01:25.834Z,43.55
2023-05-05T17:04:28.963Z,44.52
2023-05-05T17:07:31.750Z,45.00
2023-05-05T17:10:34.524Z,45.80
2023-05-05T17:13:37.704Z,45.95
2023-05-05T17:16:40.738Z,47.36
2023-05-05T17:19:44.912Z,47.16
2023-05-05T17:22:47.808Z,48.04
2023-05-05T17:25:50.827Z,48.99
2023-05-05T17:28:53.713Z,48.74
2023-05-05T17:31:56.892Z,48.46
2023-05-05T17:34:59.877Z,48.86
2023-05-05T17:38:02.619Z,49.85
2023-05-05T17:41:05.410Z,49.51
2023-05-05T17:44:08.233Z,50.15
2023-05-05T17:47:11.024Z,50.76
2023-05-05T17:50:13.844Z,52.17
2023-05-05T17:53:16.698Z,53.17
2023-05-05T17:56:19.402Z,52.90
2023-05-05T17:59:22.355Z,52.90
2023-05-05T18:02:25.629Z,53.42
2023-05-05T18:05:28.655Z,53.86
2023-05-05T18:08:31.708Z,54.03
2023-05-05T18:11:34.607Z,54.60
2023-05-05T18:14:37.472Z,54.95
2023-05-05T18:17:40.531Z,55.79
2023-05-05T18:20:44.084Z,55.99
2023-05-05T18:23:46.872Z,55.81
2023-05-05T18:26:51.058Z,56.36
2023-05-05T18:29:53.861Z,56.20
2023-05-05T18:32:56.843Z,56.99
2023-05-05T18:35:59.665Z,57.19
2023-05-05T18:39:02.442Z,57.35
2023-05-05T18:42:05.528Z,57.91
2023-05-05T18:45:10.712Z,57.46
2023-05-05T18:48:13.672Z,58.71
2023-05-05T18:51:16.957Z,59.47
2023-05-05T18:54:21.362Z,59.69
2023-05-05T18:57:24.228Z,59.43
2023-05-05T19:00:26.978Z,59.48
2023-05-05T19:03:30.132Z,60.66
2023-05-05T19:06:33.039Z,61.04
2023-05-05T19:09:36.208Z,61.41
2023-05-05T19:12:39.534Z,61.81
2023-05-05T19:15:42.463Z,62.27
2023-05-05T19:18:45.267Z,62.64
2023-05-05T19:21:48.388Z,62.99
2023-05-05T19:24:51.128Z,63.91
2023-05-05T19:27:54.229Z,64.58
2023-05-05T19:30:57.058Z,64.18
2023-05-05T19:34:02.510Z,64.74
2023-05-05T19:37:05.506Z,64.56
2023-05-05T19:40:09.065Z,65.10
2023-05-05T19:43:12.014Z,65.58
2023-05-05T19:46:14.907Z,65.93
2023-05-05T19:49:18.816Z,65.99
2023-05-05T19:52:22.828Z,66.56
2023-05-05T19:55:25.863Z,66.27
2023-05-05T19:58:28.923Z,66.65
2023-05-05T20:01:33.249Z,66.46
2023-05-05T20:04:36.122Z,66.62
2023-05-05T20:07:39.336Z,67.00
2023-05-05T20:10:42.132Z,67.36
2023-05-05T20:13:45.648Z,67.44
2023-05-05T20:16:48.440Z,67.50
2023-05-05T20:19:51.331Z,68.23
2023-05-05T20:22:54.214Z,68.58
2023-05-05T20:25:57.407Z,68.05
2023-05-05T20:29:00.197Z,68.24
2023-05-05T20:32:03.076Z,66.91
2023-05-05T20:35:06.476Z,66.99
2023-05-05T20:38:09.876Z,67.95
2023-05-05T20:41:12.693Z,67.89
2023-05-05T20:44:15.756Z,68.19
2023-05-05T20:47:18.470Z,68.08
2023-05-05T20:50:21.204Z,67.75
2023-05-05T20:53:25.553Z,68.37
2023-05-05T20:56:28.356Z,68.53
2023-05-05T20:59:31.319Z,68.99
2023-05-05T21:02:34.298Z,69.34
2023-05-05T21:05:37.390Z,69.47
2023-05-05T21:08:40.140Z,69.23
2023-05-05T21:11:43.333Z,69.33
2023-05-05T21:14:46.375Z,69.42
2023-05-05T21:17:49.243Z,69.78
2023-05-05T21:20:52.104Z,69.57
2023-05-05T21:23:57.888Z,69.31
2023-05-05T21:27:00.666Z,69.98
2023-05-05T21:30:03.671Z,69.82
2023-05-05T21:33:06.493Z,69.92
2023-05-05T21:36:09.312Z,69.72
2023-05-05T21:39:12.379Z,69.75
2023-05-05T21:42:16.391Z,69.58
2023-05-05T21:45:19.208Z,69.62
2023-05-05T21:48:21.965Z,69.46
2023-05-05T21:51:24.822Z,69.65
2023-05-05T21:54:27.912Z,69.70
2023-05-05T21:57:30.719Z,69.48
2023-05-05T22:00:33.468Z,69.63
2023-05-05T22:03:36.401Z,69.85
2023-05-05T22:06:39.140Z,69.47
2023-05-05T22:09:41.923Z,69.46
2023-05-05T22:12:45.282Z,69.58
2023-05-05T22:15:48.164Z,69.58
2023-05-05T22:18:51.501Z,69.66
2023-05-05T22:21:54.681Z,70.25
2023-05-05T22:24:57.955Z,70.19
2023-05-05T22:28:00.900Z,70.04
2023-05-05T22:31:03.680Z,70.30
2023-05-05T22:34:06.555Z,70.10
2023-05-05T22:37:09.972Z,70.16
2023-05-05T22:40:13.678Z,69.90
2023-05-05T22:43:16.637Z,70.32
2023-05-05T22:46:19.530Z,70.95
2023-05-05T22:49:22.984Z,70.53
2023-05-05T22:52:28.344Z,70.04
2023-05-05T22:55:31.639Z,70.65
2023-05-05T22:58:34.346Z,70.76
2023-05-05T23:01:37.340Z,70.72
2023-05-05T23:04:40.183Z,70.69
2023-05-05T23:07:42.950Z,70.41
2023-05-05T23:10:45.786Z,70.59
2023-05-05T23:13:48.645Z,70.70
2023-05-05T23:16:51.721Z,70.89
2023-05-05T23:19:54.737Z,70.98
2023-05-05T23:22:57.511Z,71.31
2023-05-05T23:26:00.479Z,71.06
2023-05-05T23:29:03.995Z,71.24
2023-05-05T23:32:06.792Z,71.38
2023-05-05T23:35:10.275Z,71.60
2023-05-05T23:38:13.284Z,71.77
2023-05-05T23:41:16.077Z,71.76
2023-05-05T23:44:18.828Z,71.91
2023-05-05T23:47:21.595Z,71.73
2023-05-05T23:50:25.919Z,71.63
2023-05-05T23:53:28.878Z,71.62
2023-05-05T23:56:31.987Z,72.38
2023-05-05T23:59:34.834Z,72.99
